Time;durP1;ratioP1;P1;durP2;ratioP2;P2;SDS_P1;SDS_P2;PMS_P1;PMS_P2;Temp;Humidity;BMP_temperature;BMP_pressure;BME280_temperature;BME280_humidity;BME280_pressure;Samples;Min_cycle;Max_cycle;Signal;HPM_P1;HPM_P2
2023/08/09 07:01:21;;;;;;;0.40;0.40;;;21.30;99.90;23.80;101321.00;;;;6251724;22;1461498;-65
2023/08/09 07:03:50;;;;;;;0.40;0.40;;;21.00;99.90;23.10;101314.00;;;;6256572;22;20429;-65
2023/08/09 07:06:19;;;;;;;0.10;0.10;;;20.30;99.90;24.30;101344.00;;;;6282420;22;20133;-65
2023/08/09 07:08:45;;;;;;;0.10;0.10;;;21.10;99.90;24.30;101348.00;;;;6282422;22;20132;-65
2023/08/09 07:11:46;;;;;;;0.30;0.30;;;21.20;99.90;23.80;101332.00;;;;6256655;22;20182;-65
2023/08/09 07:14:15;;;;;;;0.43;0.43;;;21.30;99.90;22.30;101315.00;;;;6256475;22;20167;-65
2023/08/09 07:16:41;;;;;;;0.10;0.10;;;20.50;99.90;23.30;101296.00;;;;6281680;22;20214;-65
2023/08/09 07:19:07;;;;;;;0.30;0.30;;;20.50;99.90;26.90;101372.00;;;;6281892;22;20622;-65
2023/08/09 07:21:38;;;;;;;0.73;0.73;;;22.20;99.90;29.40;101367.00;;;;6256249;22;20149;-65
2023/08/09 07:24:04;;;;;;;0.20;0.20;;;24.30;99.90;29.80;101443.00;;;;6281666;22;20441;-65
2023/08/09 07:26:30;;;;;;;0.40;0.40;;;25.60;99.90;29.80;101471.00;;;;6281868;22;20153;-65
2023/08/09 07:28:56;;;;;;;0.30;0.30;;;25.90;99.90;26.10;101392.00;;;;6256214;22;20153;-65
2023/08/09 07:31:24;;;;;;;0.10;0.10;;;23.70;99.90;26.30;101355.00;;;;6256430;22;20160;-65
2023/08/09 07:33:53;;;;;;;0.20;0.20;;;22.90;99.90;28.40;101398.00;;;;6282396;22;20144;-65
2023/08/09 07:36:30;;;;;;;0.50;0.50;;;23.70;99.90;25.20;101376.00;;;;6282262;22;20148;-65
2023/08/09 07:39:03;;;;;;;0.20;0.20;;;22.70;99.90;25.60;101368.00;;;;6281996;22;20160;-65
2023/08/09 07:41:29;;;;;;;0.40;0.40;;;22.20;99.90;23.70;101345.00;;;;6282357;22;20216;-65
2023/08/09 07:43:56;;;;;;;0.10;0.10;;;21.60;99.90;22.70;101348.00;;;;6308671;22;20148;-65
2023/08/09 07:46:22;;;;;;;0.30;0.30;;;20.80;99.90;22.20;101350.00;;;;6255906;22;20156;-65
2023/08/09 07:48:51;;;;;;;0.20;0.20;;;19.90;99.90;22.00;101352.00;;;;6281898;22;20445;-65
2023/08/09 07:51:17;;;;;;;0.10;0.10;;;19.80;99.90;24.80;101379.00;;;;6256828;22;20152;-65
2023/08/09 07:54:03;;;;;;;0.15;0.15;;;21.10;99.90;26.80;101395.00;;;;6281792;22;20150;-65
2023/08/09 07:56:32;;;;;;;1.17;1.17;;;22.40;99.90;28.00;101418.00;;;;6256331;22;20443;-65
2023/08/09 07:58:59;;;;;;;0.88;0.88;;;24.10;99.90;23.20;101320.00;;;;6308906;22;20499;-64
2023/08/09 08:01:26;;;;;;;2.53;1.95;;;22.20;99.90;22.80;101346.00;;;;6228406;22;20551;-65
2023/08/09 08:03:52;;;;;;;0.10;0.10;;;20.90;99.90;23.80;101375.00;;;;6250762;22;20247;-66
2023/08/09 08:06:21;;;;;;;2.28;2.08;;;20.90;99.90;23.40;101370.00;;;;6250811;22;20152;-65
2023/08/09 08:08:47;;;;;;;0.17;0.17;;;20.80;99.90;23.90;101389.00;;;;6225177;22;20164;-66
2023/08/09 08:11:15;;;;;;;0.20;0.20;;;21.10;99.90;23.60;101387.00;;;;6225367;22;20224;-65
2023/08/09 08:13:41;;;;;;;4.88;2.60;;;21.30;99.90;24.10;101396.00;;;;6250723;22;20149;-64
2023/08/09 08:16:07;;;;;;;0.90;0.85;;;21.20;99.90;24.00;101384.00;;;;6250873;22;20148;-65
2023/08/09 08:18:36;;;;;;;1.02;0.75;;;20.90;99.90;22.40;101347.00;;;;6250420;22;20137;-66
2023/08/09 08:21:03;;;;;;;0.20;0.20;;;20.70;99.90;22.50;101385.00;;;;6225097;22;20658;-66
2023/08/09 08:23:32;;;;;;;0.40;0.40;;;20.20;99.90;23.60;101389.00;;;;6251178;22;20196;-65
2023/08/09 08:25:58;;;;;;;1.70;1.67;;;20.60;99.90;23.50;101402.00;;;;6250787;22;20161;-66
2023/08/09 08:28:29;;;;;;;1.08;0.75;;;20.80;99.90;26.50;101413.00;;;;6251050;22;20467;-65
2023/08/09 08:30:55;;;;;;;3.13;2.42;;;22.10;99.90;26.20;101424.00;;;;6226474;22;20160;-65
2023/08/09 08:33:27;;;;;;;2.75;1.90;;;22.90;99.90;22.80;101374.00;;;;6251019;22;20603;-65
2023/08/09 08:35:56;;;;;;;0.10;0.10;;;21.50;99.90;26.20;101431.00;;;;6225712;22;20248;-66
2023/08/09 08:38:30;;;;;;;2.40;1.30;;;22.20;99.90;25.20;101442.00;;;;6251162;22;20225;-65
2023/08/09 08:41:00;;;;;;;1.33;1.20;;;23.00;99.90;26.00;101457.00;;;;6225142;22;20160;-65
2023/08/09 08:43:31;;;;;;;0.30;0.30;;;23.20;99.90;26.20;101429.00;;;;6226002;22;20267;-65
2023/08/09 08:46:06;;;;;;;3.72;3.30;;;22.80;99.90;28.10;101494.00;;;;6225110;22;20157;-66
2023/08/09 08:48:38;;;;;;;0.52;0.52;;;24.30;99.90;27.20;101486.00;;;;6225605;22;20152;-65
2023/08/09 08:51:07;;;;;;;0.88;0.88;;;23.90;99.90;23.80;101435.00;;;;6277153;22;20476;-63
2023/08/09 08:53:39;;;;;;;3.50;1.23;;;22.60;99.90;22.80;101391.00;;;;6250557;22;20141;-65
2023/08/09 08:56:05;;;;;;;3.80;2.58;;;21.10;99.90;23.50;101435.00;;;;6225451;22;20160;-65
2023/08/09 08:58:35;;;;;;;0.28;0.28;;;21.20;99.90;24.50;101447.00;;;;6250536;22;20156;-65
2023/08/09 09:01:03;;;;;;;0.93;0.93;;;21.30;99.90;22.70;101428.00;;;;6274067;22;20164;-65
2023/08/09 09:03:38;;;;;;;0.32;0.32;;;20.80;99.90;23.70;101441.00;;;;6308047;22;20167;-65
2023/08/09 09:06:14;;;;;;;0.65;0.65;;;21.10;99.90;23.70;101428.00;;;;6255272;22;20160;-65
2023/08/09 09:08:46;;;;;;;2.92;2.72;;;20.90;99.90;25.40;101438.00;;;;6280526;22;20201;-64
2023/08/09 09:11:18;;;;;;;0.85;0.85;;;21.90;99.90;24.30;101437.00;;;;6280924;22;20160;-64
2023/08/09 09:14:12;;;;;;;0.10;0.10;;;22.00;99.90;25.50;101450.00;;;;6281028;22;20220;-65
2023/08/09 09:16:50;;;;;;;0.20;0.20;;;22.30;99.90;27.90;101464.00;;;;6254910;22;20149;-64
2023/08/09 09:19:16;;;;;;;0.40;0.40;;;23.50;99.90;28.90;101517.00;;;;6280641;22;20145;-65
2023/08/09 09:21:51;;;;;;;0.90;0.85;;;24.60;99.90;30.20;101557.00;;;;6280509;22;20148;-64
2023/08/09 09:24:22;;;;;;;0.20;0.20;;;25.60;99.90;31.10;101556.00;;;;6280905;22;20576;-64
2023/08/09 09:27:00;;;;;;;1.85;1.27;;;26.60;99.90;27.80;101603.00;;;;6280409;22;20160;-65
2023/08/09 09:29:33;;;;;;;0.45;0.45;;;25.70;99.90;30.10;101586.00;;;;6280516;22;20159;-65
2023/08/09 09:32:08;;;;;;;0.10;0.10;;;26.00;99.90;30.40;101556.00;;;;6281227;22;20538;-66
2023/08/09 09:34:36;;;;;;;0.20;0.20;;;26.50;99.90;31.40;101557.00;;;;6255361;22;20155;-66
2023/08/09 09:37:08;;;;;;;0.20;0.20;;;27.10;99.90;31.90;101546.00;;;;6281456;22;20140;-66
2023/08/09 09:39:35;;;;;;;0.10;0.10;;;27.70;99.90;31.80;101526.00;;;;6280294;22;20156;-66
2023/08/09 09:42:04;;;;;;;0.10;0.10;;;27.80;99.90;32.60;101513.00;;;;6254432;22;20216;-66
2023/08/09 09:44:32;;;;;;;0.30;0.30;;;28.10;99.90;33.30;101469.00;;;;6255275;22;20183;-63
2023/08/09 09:47:03;;;;;;;0.70;0.70;;;28.80;99.90;30.20;101536.00;;;;6254834;22;20175;-65
2023/08/09 09:49:34;;;;;;;0.10;0.10;;;28.10;99.90;30.20;101547.00;;;;6254822;22;20176;-65
2023/08/09 09:52:05;;;;;;;5.00;1.55;;;26.60;99.90;26.90;101617.00;;;;6281258;22;20144;-66
2023/08/09 09:54:33;;;;;;;0.90;0.57;;;25.00;99.90;26.50;101593.00;;;;6281037;22;20152;-65
2023/08/09 09:57:04;;;;;;;0.30;0.30;;;23.70;99.90;27.90;101591.00;;;;6280074;22;20473;-65
2023/08/09 09:59:36;;;;;;;0.30;0.30;;;23.90;99.90;26.80;101607.00;;;;6307126;22;20565;-65
2023/08/09 10:02:02;;;;;;;0.10;0.10;;;23.50;99.90;29.10;101584.00;;;;6254675;22;20226;-65
2023/08/09 10:04:34;;;;;;;0.10;0.10;;;24.90;99.90;30.60;101573.00;;;;6254787;22;20156;-65
2023/08/09 10:07:01;;;;;;;0.20;0.20;;;26.10;99.90;28.60;101599.00;;;;6280941;22;20132;-65
2023/08/09 10:09:38;;;;;;;0.10;0.10;;;26.10;99.90;26.40;101645.00;;;;6279786;22;20475;-65
2023/08/09 10:12:13;;;;;;;0.40;0.40;;;24.50;99.90;24.80;101662.00;;;;6281317;22;20160;-65
2023/08/09 10:14:42;;;;;;;0.22;0.22;;;23.10;99.90;27.90;101632.00;;;;6281069;22;20137;-65
2023/08/09 10:17:18;;;;;;;0.10;0.10;;;23.80;99.90;29.70;101592.00;;;;6280946;22;20156;-65
2023/08/09 10:19:51;;;;;;;0.10;0.10;;;25.10;99.90;29.20;101598.00;;;;6254667;22;20152;-65
2023/08/09 10:33:35;;;;;;;0.10;0.10;;;24.20;99.90;28.00;101665.00;;;;5172892;27;20976;-63
2023/08/09 10:36:03;;;;;;;0.10;0.10;;;24.10;99.90;29.90;101637.00;;;;5133813;27;20193;-64
2023/08/09 10:38:35;;;;;;;0.10;0.10;;;25.30;99.90;30.30;101630.00;;;;5116484;27;20231;-64
2023/08/09 10:41:09;;;;;;;0.55;0.55;;;26.00;99.90;26.50;101682.00;;;;5133382;27;20191;-64
2023/08/09 10:43:37;;;;;;;0.10;0.10;;;24.60;99.90;29.40;101617.00;;;;5133579;27;20183;-64
2023/08/09 10:46:20;;;;;;;0.20;0.20;;;25.20;99.90;29.70;101593.00;;;;5133629;27;20209;-64
2023/08/09 10:48:59;;;;;;;0.10;0.10;;;25.80;99.90;29.90;101625.00;;;;5133602;27;20207;-64
2023/08/09 10:51:45;;;;;;;0.10;0.10;;;26.20;99.90;29.10;101642.00;;;;5133652;27;20214;-64
2023/08/09 10:54:50;;;;;;;0.25;0.25;;;25.60;99.90;28.70;101651.00;;;;5129389;28;20676;-64
2023/08/09 10:57:21;;;;;;;1.00;0.52;;;25.90;99.90;29.70;101630.00;;;;5132726;27;20652;-64
2023/08/09 11:00:02;;;;;;;0.10;0.10;;;26.10;99.90;30.90;101615.00;;;;5133853;27;20187;-64
2023/08/09 11:02:37;;;;;;;0.10;0.10;;;26.70;99.90;32.20;101600.00;;;;5102315;28;20218;-64
2023/08/09 11:05:06;;;;;;;1.33;0.82;;;27.60;99.90;30.60;101630.00;;;;5112633;27;20248;-64
2023/08/09 11:08:09;;;;;;;0.35;0.35;;;27.50;99.90;29.00;101665.00;;;;5133027;27;20190;-65
2023/08/09 11:10:52;;;;;;;5.18;0.90;;;26.00;99.90;27.20;101685.00;;;;5126583;27;20197;-64
2023/08/09 11:13:25;;;;;;;0.10;0.10;;;25.20;99.90;29.20;101670.00;;;;5129558;27;20195;-64
2023/08/09 11:15:56;;;;;;;0.20;0.20;;;25.50;99.90;30.40;101667.00;;;;5148357;27;20547;-64
2023/08/09 11:18:25;;;;;;;0.10;0.10;;;26.50;99.90;31.40;101653.00;;;;5112176;27;20194;-64
2023/08/09 11:20:50;;;;;;;0.43;0.43;;;27.30;99.90;31.80;101636.00;;;;5132515;27;20641;-64
2023/08/09 11:23:22;;;;;;;0.10;0.10;;;27.70;99.90;32.90;101633.00;;;;5112449;28;20222;-64
2023/08/09 11:25:51;;;;;;;0.20;0.20;;;28.30;99.90;33.00;101657.00;;;;5132612;27;20190;-64
2023/08/09 11:28:17;;;;;;;0.13;0.10;;;28.90;99.90;33.30;101660.00;;;;5132615;27;20187;-64
2023/08/09 11:30:45;;;;;;;0.10;0.10;;;29.10;99.90;32.10;101731.00;;;;5150430;27;20179;-64
2023/08/09 11:33:12;;;;;;;0.10;0.10;;;28.60;99.90;32.70;101714.00;;;;5132290;27;20211;-64
2023/08/09 11:35:44;;;;;;;0.10;0.10;;;28.70;99.90;32.00;101742.00;;;;5132793;27;20185;-64
2023/08/09 11:38:21;;;;;;;0.10;0.10;;;28.40;99.90;32.70;101744.00;;;;5132839;27;20280;-64
2023/08/09 11:40:51;;;;;;;0.10;0.10;;;28.50;99.90;25.80;101784.00;;;;5132411;27;20187;-64
2023/08/09 11:43:26;;;;;;;0.10;0.10;;;25.20;99.90;30.00;101742.00;;;;5127151;27;20180;-64
2023/08/09 11:46:01;;;;;;;0.10;0.10;;;25.70;99.90;31.70;101744.00;;;;5118238;27;20183;-64
2023/08/09 11:48:39;;;;;;;0.10;0.10;;;27.10;99.90;31.80;101743.00;;;;5098538;27;20198;-64
2023/08/09 11:51:20;;;;;;;0.10;0.10;;;27.70;99.90;33.20;101744.00;;;;5118303;27;20190;-64
2023/08/09 11:53:49;;;;;;;0.10;0.10;;;28.60;99.90;30.70;101763.00;;;;5110041;27;20175;-64
2023/08/09 11:56:22;;;;;;;0.20;0.20;;;28.30;99.90;28.80;101770.00;;;;5117365;27;20188;-64
2023/08/09 11:58:58;;;;;;;0.55;0.55;;;26.70;99.90;26.70;101769.00;;;;5099016;27;20176;-64
2023/08/09 12:01:29;;;;;;;0.10;0.10;;;24.70;99.90;29.60;101744.00;;;;5118256;27;20719;-64
2023/08/09 12:04:20;;;;;;;1.05;0.47;;;25.10;99.90;26.60;101786.00;;;;5132202;27;20194;-64
2023/08/09 12:06:55;;;;;;;0.10;0.10;;;24.80;99.90;28.70;101752.00;;;;5116403;27;20178;-64
2023/08/09 12:09:45;;;;;;;0.10;0.10;;;24.70;99.90;29.90;101729.00;;;;5117969;27;20176;-64
2023/08/09 12:12:17;;;;;;;0.10;0.10;;;25.50;99.90;30.10;101749.00;;;;5105424;27;20214;-64
2023/08/09 12:14:52;;;;;;;0.35;0.35;;;25.90;99.90;29.80;101761.00;;;;5117997;27;20682;-64
2023/08/09 12:17:38;;;;;;;0.20;0.20;;;25.90;99.90;30.00;101763.00;;;;5114441;28;20195;-64
2023/08/09 12:20:09;;;;;;;0.70;0.70;;;25.90;99.90;28.70;101778.00;;;;5112779;27;20553;-64
2023/08/09 12:22:37;;;;;;;0.10;0.10;;;25.50;99.90;29.50;101782.00;;;;5108684;27;20206;-64
2023/08/09 12:25:09;;;;;;;0.20;0.20;;;25.40;99.90;29.80;101778.00;;;;5117734;27;20292;-64
2023/08/09 12:27:36;;;;;;;0.10;0.10;;;25.60;99.90;29.80;101782.00;;;;5117991;27;20656;-64
2023/08/09 12:30:10;;;;;;;0.10;0.10;;;25.70;99.90;30.20;101775.00;;;;5100623;27;20187;-65
2023/08/09 12:32:40;;;;;;;35.33;5.20;;;25.90;99.90;29.60;101788.00;;;;5135470;27;20251;-64
2023/08/09 12:35:12;;;;;;;0.35;0.35;;;25.70;99.90;28.40;101800.00;;;;5117570;27;20186;-64
2023/08/09 12:37:46;;;;;;;0.10;0.10;;;25.30;99.90;29.30;101800.00;;;;5117757;27;20183;-64
2023/08/09 12:40:13;;;;;;;0.10;0.10;;;25.40;99.90;29.70;101796.00;;;;5107765;27;20163;-64
2023/08/09 12:42:47;;;;;;;0.10;0.10;;;25.40;99.90;29.80;101800.00;;;;5117469;27;20240;-64
2023/08/09 12:45:27;;;;;;;0.10;0.10;;;25.60;99.90;29.70;101804.00;;;;5097250;28;20311;-64
2023/08/09 12:48:02;;;;;;;0.10;0.10;;;25.70;99.90;29.70;101810.00;;;;5117092;27;20183;-64
2023/08/09 12:50:31;;;;;;;0.10;0.10;;;25.60;99.90;29.40;101789.00;;;;5117452;27;20190;-64
2023/08/09 12:53:03;;;;;;;0.38;0.38;;;25.50;99.90;29.00;101816.00;;;;5111260;27;20199;-64
2023/08/09 12:55:29;;;;;;;1.13;0.73;;;25.10;99.90;28.40;101824.00;;;;5111828;27;20244;-64
2023/08/09 12:57:57;;;;;;;0.20;0.20;;;25.00;99.90;28.00;101821.00;;;;5135451;27;20184;-64
2023/08/09 13:00:30;;;;;;;0.20;0.20;;;24.30;99.90;28.00;101828.00;;;;5107373;27;20203;-64
2023/08/09 13:02:59;;;;;;;0.45;0.45;;;24.50;99.90;27.80;101849.00;;;;5093253;27;20191;-64
2023/08/09 13:05:27;;;;;;;0.15;0.15;;;24.40;99.90;27.60;101838.00;;;;5098319;27;20728;-65
2023/08/09 13:08:11;;;;;;;0.10;0.10;;;24.20;99.90;28.50;101820.00;;;;5117412;27;20191;-64
2023/08/09 13:10:59;;;;;;;0.10;0.10;;;24.30;99.90;28.00;101845.00;;;;5115879;27;20176;-64
2023/08/09 13:13:28;;;;;;;0.10;0.10;;;24.20;99.90;27.50;101842.00;;;;5116092;27;20207;-64
2023/08/09 13:15:54;;;;;;;0.10;0.10;;;24.00;99.90;28.40;101841.00;;;;5116978;27;20192;-64
2023/08/09 13:18:29;;;;;;;0.10;0.10;;;24.20;99.90;28.60;101829.00;;;;5111589;27;20176;-64
2023/08/09 13:20:58;;;;;;;0.13;0.13;;;24.50;99.90;29.00;101833.00;;;;5087294;28;20220;-64
2023/08/09 13:23:26;;;;;;;0.10;0.10;;;24.70;99.90;29.30;101825.00;;;;5090246;27;20180;-65
2023/08/09 13:25:55;;;;;;;0.10;0.10;;;24.90;99.90;28.90;101830.00;;;;5116665;27;20209;-64
2023/08/09 13:28:24;;;;;;;0.10;0.10;;;25.00;99.90;28.60;101819.00;;;;5099822;27;20270;-64
2023/08/09 13:30:50;;;;;;;0.55;0.55;;;24.80;99.90;29.00;101820.00;;;;5099571;27;20183;-65
2023/08/09 13:33:19;;;;;;;0.10;0.10;;;24.90;99.90;28.90;101812.00;;;;5116406;27;20211;-65
2023/08/09 13:35:48;;;;;;;0.10;0.10;;;24.80;99.90;28.90;101806.00;;;;5116344;27;20190;-65
2023/08/09 13:38:33;;;;;;;0.10;0.10;;;24.80;99.90;28.90;101835.00;;;;5116164;27;20200;-65
2023/08/09 13:41:07;;;;;;;0.15;0.15;;;24.80;99.90;29.10;101832.00;;;;5112951;28;20214;-64
2023/08/09 13:43:39;;;;;;;0.40;0.20;;;24.90;99.90;29.30;101829.00;;;;5127560;27;20183;-65
2023/08/09 13:46:08;;;;;;;0.20;0.20;;;25.00;99.90;29.10;101845.00;;;;5103182;28;20195;-65
2023/08/09 13:48:38;;;;;;;0.20;0.20;;;25.00;99.90;28.90;101843.00;;;;5132926;27;20180;-65
2023/08/09 13:51:05;;;;;;;0.10;0.10;;;25.10;99.90;29.40;101847.00;;;;5116171;27;20637;-65
2023/08/09 13:53:34;;;;;;;0.20;0.20;;;25.10;99.90;29.10;101847.00;;;;5116194;27;20645;-64
2023/08/09 13:56:03;;;;;;;0.20;0.20;;;25.20;99.90;29.00;101852.00;;;;5130034;27;20180;-65
2023/08/09 13:58:31;;;;;;;0.10;0.10;;;25.10;99.90;28.80;101861.00;;;;5116194;27;20176;-65
2023/08/09 14:01:09;;;;;;;0.20;0.20;;;25.00;99.90;28.20;101870.00;;;;5115762;27;20191;-64
2023/08/09 14:03:38;;;;;;;0.10;0.10;;;24.70;99.90;28.60;101858.00;;;;5114771;27;20187;-64
2023/08/09 14:06:13;;;;;;;1.08;0.40;;;24.60;99.90;28.40;101870.00;;;;5116107;27;20176;-65
2023/08/09 14:08:47;;;;;;;2.92;0.75;;;24.60;99.90;28.30;101869.00;;;;5088904;27;20188;-65
2023/08/09 14:11:36;;;;;;;0.10;0.10;;;24.60;99.90;28.00;101875.00;;;;5115365;28;20222;-65
2023/08/09 14:14:03;;;;;;;0.10;0.10;;;24.30;99.90;28.20;101871.00;;;;5114707;27;20187;-64
2023/08/09 14:16:57;;;;;;;0.10;0.10;;;24.30;99.90;28.30;101847.00;;;;5134022;27;20184;-65
2023/08/09 14:19:26;;;;;;;0.10;0.10;;;24.50;99.90;27.90;101848.00;;;;5098869;27;20188;-64
2023/08/09 14:21:55;;;;;;;0.10;0.10;;;24.30;99.90;28.60;101847.00;;;;5112294;27;20253;-64
2023/08/09 14:24:24;;;;;;;0.35;0.20;;;24.40;99.90;29.00;101849.00;;;;5115091;27;20187;-65
2023/08/09 14:26:55;;;;;;;0.10;0.10;;;24.50;99.90;28.70;101847.00;;;;5116254;27;20543;-66
2023/08/09 14:29:23;;;;;;;0.10;0.10;;;24.60;99.90;28.30;101862.00;;;;5134084;27;20179;-64
2023/08/09 14:31:57;;;;;;;0.10;0.10;;;24.50;99.90;28.30;101876.00;;;;5115914;28;20582;-65
2023/08/09 14:34:26;;;;;;;0.10;0.10;;;24.40;99.90;28.50;101873.00;;;;5115234;28;20237;-64
2023/08/09 14:37:12;;;;;;;0.10;0.10;;;24.40;99.90;28.00;101851.00;;;;5099453;28;20544;-64
2023/08/09 14:39:43;;;;;;;0.40;0.40;;;24.20;99.90;27.70;101861.00;;;;5127712;28;20531;-64
2023/08/09 14:43:03;;;;;;;0.10;0.10;;;23.90;99.90;27.70;101882.00;;;;5133860;28;20187;-65
2023/08/09 14:45:50;;;;;;;0.10;0.10;;;23.70;99.90;27.90;101887.00;;;;5109000;28;20187;-64
2023/08/09 14:48:19;;;;;;;0.10;0.10;;;23.80;99.90;27.30;101900.00;;;;5094360;28;20714;-64
2023/08/09 14:50:54;;;;;;;0.30;0.30;;;23.80;99.90;27.70;101886.00;;;;5115369;28;20175;-64
2023/08/09 14:53:26;;;;;;;0.50;0.50;;;23.70;99.90;26.60;101899.00;;;;5115292;28;20286;-64
2023/08/09 14:55:58;;;;;;;0.20;0.20;;;23.60;99.90;27.30;101885.00;;;;5094853;28;20204;-64
2023/08/09 14:58:24;;;;;;;0.10;0.10;;;23.50;99.90;27.40;101894.00;;;;5126382;28;20677;-65
2023/08/09 15:00:53;;;;;;;0.20;0.20;;;23.50;99.90;27.80;101888.00;;;;5098206;28;20515;-64
2023/08/09 15:03:28;;;;;;;0.20;0.20;;;23.60;99.90;27.40;101889.00;;;;5115288;28;20534;-64
2023/08/09 15:05:54;;;;;;;0.40;0.40;;;23.70;99.90;27.00;101892.00;;;;5132305;28;20202;-64
2023/08/09 15:08:31;;;;;;;0.10;0.10;;;23.60;99.90;27.50;101887.00;;;;5098022;28;20211;-65
2023/08/09 15:10:59;;;;;;;0.13;0.13;;;23.50;99.90;26.70;101899.00;;;;5133360;28;20594;-64
2023/08/09 15:13:31;;;;;;;0.20;0.20;;;23.40;99.90;27.10;101902.00;;;;5115588;28;20280;-64
2023/08/09 15:15:59;;;;;;;0.32;0.32;;;23.20;99.90;27.00;101890.00;;;;5112807;28;20176;-65
2023/08/09 15:18:28;;;;;;;0.10;0.10;;;23.30;99.90;27.50;101888.00;;;;5096254;28;20195;-64
2023/08/09 15:21:03;;;;;;;0.10;0.10;;;23.30;99.90;27.60;101888.00;;;;5114746;27;20262;-64
2023/08/09 15:23:33;;;;;;;0.13;0.13;;;23.50;99.90;27.60;101884.00;;;;5118976;27;20187;-64
2023/08/09 15:26:06;;;;;;;0.32;0.32;;;23.60;99.90;27.30;101864.00;;;;5118884;27;20179;-64
2023/08/09 15:28:36;;;;;;;0.10;0.10;;;23.30;99.90;27.20;101894.00;;;;5102009;27;20213;-64
2023/08/09 15:31:24;;;;;;;0.10;0.10;;;23.40;99.90;27.00;101897.00;;;;5118959;27;20179;-64
2023/08/09 15:33:56;;;;;;;0.25;0.25;;;23.10;99.90;26.60;101911.00;;;;5137470;27;20187;-64
2023/08/09 15:36:24;;;;;;;0.10;0.10;;;23.00;99.90;26.80;101898.00;;;;5094480;27;20633;-65
2023/08/09 15:38:53;;;;;;;0.20;0.20;;;23.10;99.90;27.60;101888.00;;;;5118406;27;20179;-64
2023/08/09 15:41:22;;;;;;;0.93;0.93;;;23.30;99.90;27.60;101893.00;;;;5118363;27;20253;-65
2023/08/09 15:43:48;;;;;;;0.20;0.20;;;23.40;99.90;27.60;101894.00;;;;5118527;27;20195;-64
2023/08/09 15:46:20;;;;;;;0.10;0.10;;;23.50;99.90;26.70;101919.00;;;;5098236;28;20184;-65
2023/08/09 15:48:51;;;;;;;0.10;0.10;;;23.30;99.90;26.00;101914.00;;;;5118463;27;20171;-64
2023/08/09 15:51:23;;;;;;;0.20;0.20;;;22.70;99.90;26.70;101900.00;;;;5100989;27;20255;-64
2023/08/09 15:53:51;;;;;;;0.10;0.10;;;22.80;99.90;27.30;101890.00;;;;5110043;28;20180;-65
2023/08/09 15:56:23;;;;;;;0.10;0.10;;;23.00;99.90;26.70;101899.00;;;;5096565;27;20191;-65
2023/08/09 15:58:58;;;;;;;0.10;0.10;;;23.10;99.90;27.00;101887.00;;;;5110786;27;20641;-64
2023/08/09 16:01:24;;;;;;;0.10;0.10;;;23.00;99.90;26.50;101886.00;;;;5118146;27;20527;-65
2023/08/09 16:03:58;;;;;;;0.20;0.20;;;22.80;99.90;26.70;101896.00;;;;5118701;27;20187;-65
2023/08/09 16:06:32;;;;;;;0.10;0.10;;;22.80;99.90;26.70;101886.00;;;;5125530;27;20776;-65
2023/08/09 16:08:58;;;;;;;0.57;0.35;;;22.70;99.90;26.10;101887.00;;;;5118245;27;20175;-64
2023/08/09 16:11:27;;;;;;;0.20;0.20;;;22.60;99.90;25.60;101905.00;;;;5101074;27;20540;-64
2023/08/09 16:13:55;;;;;;;1.55;0.50;;;22.20;99.90;26.60;101882.00;;;;5104373;27;20634;-64
2023/08/09 16:16:24;;;;;;;1.65;0.68;;;22.40;99.90;25.60;101894.00;;;;5113583;27;20184;-64
2023/08/09 16:18:52;;;;;;;0.10;0.10;;;22.30;99.90;25.50;101897.00;;;;5118618;27;20566;-64
2023/08/09 16:21:20;;;;;;;0.10;0.10;;;22.10;99.90;25.80;101890.00;;;;5118034;27;20199;-65
2023/08/09 16:23:48;;;;;;;1.05;1.00;;;22.10;99.90;26.10;101892.00;;;;5112784;27;20179;-64
2023/08/09 16:26:17;;;;;;;0.10;0.10;;;22.30;99.90;26.40;101897.00;;;;5117990;27;20240;-64
2023/08/09 16:28:46;;;;;;;0.22;0.22;;;22.40;99.90;25.50;101912.00;;;;5131907;27;20218;-64
2023/08/09 16:31:14;;;;;;;0.15;0.15;;;22.10;99.90;25.40;101877.00;;;;5117426;27;20175;-64
2023/08/09 16:33:41;;;;;;;0.10;0.10;;;22.10;99.90;25.80;101898.00;;;;5118002;27;20185;-64
2023/08/09 16:36:07;;;;;;;0.10;0.10;;;22.00;99.90;26.10;101903.00;;;;5117556;27;20182;-64
2023/08/09 16:38:39;;;;;;;0.63;0.32;;;22.20;99.90;25.70;101904.00;;;;5109471;28;20219;-64
2023/08/09 16:41:05;;;;;;;0.10;0.10;;;22.20;99.90;26.40;101895.00;;;;5113321;27;20232;-64
2023/08/09 16:43:37;;;;;;;0.10;0.10;;;22.30;99.90;26.20;101890.00;;;;5097196;28;20583;-64
2023/08/09 16:46:04;;;;;;;0.10;0.10;;;22.30;99.90;25.90;101883.00;;;;5111749;27;20667;-64
2023/08/09 16:48:35;;;;;;;0.10;0.10;;;22.10;99.90;26.50;101905.00;;;;5100010;27;20175;-64
2023/08/09 16:51:06;;;;;;;0.10;0.10;;;22.30;99.90;26.50;101913.00;;;;5117619;27;20202;-64
2023/08/09 16:53:36;;;;;;;0.10;0.10;;;22.40;99.90;26.50;101894.00;;;;5117043;27;20724;-64
2023/08/09 16:56:02;;;;;;;0.20;0.20;;;22.40;99.90;25.80;101935.00;;;;5135451;27;20221;-67
2023/08/09 16:58:37;;;;;;;0.10;0.10;;;22.30;99.90;25.70;101899.00;;;;5117419;27;20168;-65
2023/08/09 17:01:05;;;;;;;0.52;0.52;;;22.00;99.90;26.10;101906.00;;;;5114733;27;20209;-64
2023/08/09 17:03:31;;;;;;;0.20;0.20;;;22.10;99.90;25.70;101909.00;;;;5134158;27;20191;-65
2023/08/09 17:05:57;;;;;;;0.10;0.10;;;22.00;99.90;25.80;101933.00;;;;5116819;27;20175;-64
2023/08/09 17:08:30;;;;;;;0.10;0.10;;;22.00;99.90;26.00;101939.00;;;;5116955;27;20189;-65
2023/08/09 17:10:56;;;;;;;0.20;0.20;;;22.00;99.90;25.90;101911.00;;;;5112508;27;20591;-65
2023/08/09 17:13:28;;;;;;;0.10;0.10;;;22.00;99.90;25.90;101923.00;;;;5099902;27;20227;-65
2023/08/09 17:15:57;;;;;;;0.10;0.10;;;22.00;99.90;26.20;101930.00;;;;5116868;27;20183;-65
2023/08/09 17:18:25;;;;;;;0.10;0.10;;;22.00;99.90;26.40;101924.00;;;;5105826;28;20184;-65
2023/08/09 17:20:52;;;;;;;0.32;0.32;;;22.20;99.90;25.70;101939.00;;;;5099552;27;20275;-65
2023/08/09 17:23:22;;;;;;;0.63;0.63;;;22.10;99.90;26.00;101935.00;;;;5115463;27;20191;-67
2023/08/09 17:25:50;;;;;;;0.10;0.10;;;22.00;99.90;25.80;101906.00;;;;5116971;27;20171;-65
2023/08/09 17:28:24;;;;;;;0.50;0.50;;;21.90;99.90;26.10;101934.00;;;;5095908;28;20180;-65
2023/08/09 17:31:28;;;;;;;0.20;0.17;;;21.90;99.90;26.00;101939.00;;;;5134699;27;20183;-65
2023/08/09 17:33:58;;;;;;;0.30;0.30;;;22.00;99.90;25.70;101920.00;;;;5093833;27;20226;-64
2023/08/09 17:36:28;;;;;;;0.10;0.10;;;21.90;99.90;26.10;101942.00;;;;5098117;27;20203;-64
2023/08/09 17:39:03;;;;;;;0.10;0.10;;;21.90;99.90;26.10;101949.00;;;;5097613;27;20264;-65
2023/08/09 17:41:29;;;;;;;0.10;0.10;;;21.90;99.90;26.20;101946.00;;;;5103292;27;20552;-65
2023/08/09 17:43:56;;;;;;;0.10;0.10;;;22.00;99.90;25.70;101942.00;;;;5134477;27;20183;-65
2023/08/09 17:46:29;;;;;;;0.20;0.20;;;21.90;99.90;24.70;101949.00;;;;5116615;27;20191;-65
2023/08/09 17:48:55;;;;;;;0.10;0.10;;;21.50;99.90;25.00;101952.00;;;;5102672;28;20191;-64
2023/08/09 17:51:25;;;;;;;0.10;0.10;;;21.40;99.90;24.90;101956.00;;;;5113536;27;20179;-64
2023/08/09 17:53:53;;;;;;;0.10;0.10;;;21.20;99.90;25.50;101956.00;;;;5116419;27;20262;-64
2023/08/09 17:56:21;;;;;;;0.10;0.10;;;21.30;99.90;25.40;101961.00;;;;5116082;27;20187;-64
2023/08/09 17:58:50;;;;;;;0.30;0.30;;;21.40;99.90;25.30;101959.00;;;;5112947;27;20457;-64
2023/08/09 18:01:24;;;;;;;0.10;0.10;;;21.50;99.90;25.60;101935.00;;;;5116656;27;20233;-64
2023/08/09 18:03:50;;;;;;;0.10;0.10;;;21.60;99.90;25.50;101960.00;;;;5102827;27;20311;-65
2023/08/09 18:06:26;;;;;;;0.10;0.10;;;21.40;99.90;25.00;101961.00;;;;5116171;27;20580;-64
2023/08/09 18:08:57;;;;;;;0.10;0.10;;;21.30;99.90;25.20;101967.00;;;;5134281;27;20176;-65
2023/08/09 18:11:28;;;;;;;0.10;0.10;;;21.40;99.90;24.70;101974.00;;;;5112708;28;20193;-65
2023/08/09 18:13:59;;;;;;;0.30;0.30;;;21.30;99.90;24.20;101975.00;;;;5130621;27;20198;-65
2023/08/09 18:16:29;;;;;;;0.20;0.20;;;20.90;99.90;23.50;101949.00;;;;5114208;28;20188;-66
2023/08/09 18:18:57;;;;;;;0.10;0.10;;;20.50;99.90;24.50;101973.00;;;;5098672;27;20190;-65